createdAt,value
2022-10-08T00:01:32.145Z,2.50
2022-10-08T00:04:00.469Z,2.10
2022-10-08T00:06:31.062Z,2.00
2022-10-08T00:09:02.213Z,2.00
2022-10-08T00:11:35.233Z,2.15
2022-10-08T00:14:03.790Z,1.90
2022-10-08T00:16:34.643Z,2.15
2022-10-08T00:19:07.003Z,2.00
2022-10-08T00:21:37.759Z,2.10
2022-10-08T00:24:08.920Z,2.20
2022-10-08T00:26:43.594Z,2.00
2022-10-08T00:29:14.873Z,2.50
2022-10-08T00:31:45.962Z,2.50
2022-10-08T00:34:17.759Z,2.83
2022-10-08T00:36:47.410Z,2.83
2022-10-08T00:39:20.286Z,3.00
2022-10-08T00:44:54.207Z,2.17
2022-10-08T00:47:36.783Z,2.08
2022-10-08T00:50:11.771Z,2.33
2022-10-08T00:52:44.874Z,2.25
2022-10-08T00:55:15.971Z,2.40
2022-10-08T00:57:45.840Z,2.10
2022-10-08T01:00:19.149Z,1.92
2022-10-08T01:02:47.720Z,1.92
2022-10-08T01:05:19.637Z,2.42
2022-10-08T01:07:53.353Z,1.90
2022-10-08T01:10:33.557Z,2.05
2022-10-08T01:13:28.417Z,1.88
2022-10-08T01:16:07.508Z,2.33
2022-10-08T01:18:47.696Z,2.88
2022-10-08T01:21:24.532Z,2.40
2022-10-08T01:24:48.065Z,2.17
2022-10-08T01:27:29.424Z,1.90
2022-10-08T01:30:01.966Z,2.15
2022-10-08T01:32:38.715Z,2.28
2022-10-08T01:35:13.654Z,2.35
2022-10-08T01:37:45.073Z,2.20
2022-10-08T01:40:18.865Z,2.05
2022-10-08T01:42:51.597Z,2.17
2022-10-08T01:47:54.478Z,2.00
2022-10-08T01:50:28.233Z,2.00
2022-10-08T01:53:04.501Z,2.20
2022-10-08T01:55:37.683Z,2.40
2022-10-08T01:58:14.921Z,2.05
2022-10-08T02:00:43.451Z,2.00
2022-10-08T02:03:12.145Z,2.35
2022-10-08T02:05:46.109Z,2.40
2022-10-08T02:08:14.385Z,2.63
2022-10-08T02:10:42.829Z,2.38
2022-10-08T02:13:13.150Z,1.73
2022-10-08T02:15:51.288Z,2.20
2022-10-08T02:18:23.970Z,2.20
2022-10-08T02:20:59.875Z,2.50
2022-10-08T02:23:33.445Z,2.20
2022-10-08T02:26:04.893Z,2.30
2022-10-08T02:28:45.159Z,2.15
2022-10-08T02:31:20.470Z,2.50
2022-10-08T02:33:56.020Z,2.05
2022-10-08T02:36:31.310Z,2.30
2022-10-08T02:39:04.753Z,2.15
2022-10-08T02:41:40.357Z,2.10
2022-10-08T02:44:15.689Z,2.00
2022-10-08T02:46:49.301Z,2.30
2022-10-08T02:49:24.916Z,2.40
2022-10-08T02:51:56.020Z,2.30
2022-10-08T02:54:25.515Z,2.35
2022-10-08T02:56:59.900Z,2.67
2022-10-08T02:59:29.730Z,2.40
2022-10-08T03:02:02.574Z,2.65
2022-10-08T03:04:36.762Z,2.85
2022-10-08T03:07:05.803Z,2.90
2022-10-08T03:09:38.377Z,2.80
2022-10-08T03:12:07.823Z,3.00
2022-10-08T03:14:42.023Z,2.38
2022-10-08T03:17:13.910Z,3.42
2022-10-08T03:19:42.125Z,2.63
2022-10-08T03:22:10.414Z,4.20
2022-10-08T03:24:38.673Z,4.40
2022-10-08T03:27:06.883Z,3.13
2022-10-08T03:29:36.423Z,3.65
2022-10-08T03:32:04.628Z,3.38
2022-10-08T03:34:32.822Z,4.70
2022-10-08T03:37:01.051Z,4.53
2022-10-08T03:39:29.227Z,5.03
2022-10-08T03:41:57.461Z,3.33
2022-10-08T03:44:25.675Z,3.08
2022-10-08T03:46:55.182Z,2.90
2022-10-08T03:49:23.354Z,2.55
2022-10-08T03:51:51.506Z,2.63
2022-10-08T03:54:19.733Z,2.63
2022-10-08T03:56:47.910Z,2.40
2022-10-08T03:59:16.478Z,2.55
2022-10-08T04:01:44.692Z,2.33
2022-10-08T04:04:14.326Z,2.80
2022-10-08T04:06:42.570Z,2.40
2022-10-08T04:09:11.592Z,2.50
2022-10-08T04:11:39.767Z,2.50
2022-10-08T04:14:08.099Z,2.25
2022-10-08T04:16:36.255Z,2.33
2022-10-08T04:19:04.479Z,2.28
2022-10-08T04:21:34.010Z,2.28
2022-10-08T04:24:02.206Z,2.35
2022-10-08T04:26:30.872Z,2.35
2022-10-08T04:28:59.066Z,2.50
2022-10-08T04:31:27.356Z,2.65
2022-10-08T04:33:55.593Z,2.55
2022-10-08T04:36:25.675Z,2.70
2022-10-08T04:38:55.226Z,2.70
2022-10-08T04:41:25.573Z,2.67
2022-10-08T04:43:55.373Z,2.90
2022-10-08T04:46:24.051Z,3.03
2022-10-08T04:48:54.742Z,2.53
2022-10-08T04:51:25.024Z,2.75
2022-10-08T04:53:56.240Z,2.63
2022-10-08T04:56:26.864Z,2.50
2022-10-08T04:58:56.061Z,2.65
2022-10-08T05:01:24.929Z,2.78
2022-10-08T05:03:56.402Z,2.95
2022-10-08T05:06:28.151Z,2.80
2022-10-08T05:08:59.781Z,2.70
2022-10-08T05:11:28.677Z,2.75
2022-10-08T05:13:59.070Z,3.20
2022-10-08T05:16:28.077Z,2.90
2022-10-08T05:18:57.379Z,3.10
2022-10-08T05:21:28.896Z,2.85
2022-10-08T05:24:01.656Z,3.20
2022-10-08T05:29:23.110Z,2.83
2022-10-08T05:31:51.309Z,3.73
2022-10-08T05:34:19.605Z,3.55
2022-10-08T05:36:47.895Z,3.90
2022-10-08T05:39:17.882Z,3.97
2022-10-08T05:41:46.084Z,3.40
2022-10-08T05:44:14.444Z,3.70
2022-10-08T05:46:42.807Z,3.78
2022-10-08T05:49:20.688Z,3.75
2022-10-08T05:51:49.664Z,3.88
2022-10-08T05:54:20.637Z,3.63
2022-10-08T05:56:49.027Z,4.10
2022-10-08T05:59:20.162Z,4.60
2022-10-08T06:01:48.535Z,5.57
2022-10-08T06:04:18.263Z,4.55
2022-10-08T06:06:46.985Z,4.18
2022-10-08T06:09:19.196Z,4.15
2022-10-08T06:11:48.626Z,4.18
2022-10-08T06:14:19.202Z,4.45
2022-10-08T06:16:48.015Z,4.47
2022-10-08T06:19:16.665Z,4.40
2022-10-08T06:21:44.908Z,4.22
2022-10-08T06:24:13.639Z,4.20
2022-10-08T06:26:45.051Z,4.32
2022-10-08T06:29:17.302Z,4.10
2022-10-08T06:31:46.214Z,4.25
2022-10-08T06:34:14.896Z,4.38
2022-10-08T06:36:43.176Z,4.25
2022-10-08T06:39:14.082Z,4.25
2022-10-08T06:41:44.085Z,4.38
2022-10-08T06:44:14.806Z,4.10
2022-10-08T06:46:43.608Z,4.20
2022-10-08T06:49:12.484Z,4.50
2022-10-08T06:51:40.761Z,3.97
2022-10-08T06:54:09.207Z,4.25
2022-10-08T06:56:39.458Z,4.50
2022-10-08T06:59:09.191Z,3.92
2022-10-08T07:01:37.821Z,4.00
2022-10-08T07:04:07.291Z,3.55
2022-10-08T07:06:35.685Z,3.35
2022-10-08T07:09:06.800Z,2.78
2022-10-08T07:11:35.167Z,2.33
2022-10-08T07:14:03.462Z,2.22
2022-10-08T07:16:33.056Z,1.90
2022-10-08T07:19:01.756Z,1.48
2022-10-08T07:21:31.251Z,1.77
2022-10-08T07:24:01.501Z,1.90
2022-10-08T07:26:33.200Z,1.40
2022-10-08T07:29:04.748Z,1.40
2022-10-08T07:31:37.647Z,1.63
2022-10-08T07:34:08.564Z,1.45
2022-10-08T07:36:37.020Z,1.50
2022-10-08T07:39:08.402Z,1.42
2022-10-08T07:41:37.086Z,1.40
2022-10-08T07:44:06.856Z,1.42
2022-10-08T07:46:38.261Z,1.50
2022-10-08T07:49:06.814Z,1.58
2022-10-08T07:51:36.533Z,1.50
2022-10-08T07:54:07.319Z,1.60
2022-10-08T07:56:36.799Z,1.40
2022-10-08T07:59:06.240Z,1.30
2022-10-08T08:01:36.608Z,1.30
2022-10-08T08:04:08.385Z,1.17
2022-10-08T08:06:43.136Z,1.10
2022-10-08T08:09:12.239Z,1.10
2022-10-08T08:11:41.081Z,1.10
2022-10-08T08:14:09.384Z,0.90
2022-10-08T08:16:40.352Z,1.20
2022-10-08T08:19:08.869Z,1.40
2022-10-08T08:21:39.285Z,1.10
2022-10-08T08:24:10.922Z,0.98
2022-10-08T08:26:43.283Z,0.75
2022-10-08T08:29:14.153Z,0.77
2022-10-08T08:31:46.023Z,0.80
2022-10-08T08:34:16.938Z,1.20
2022-10-08T08:36:48.768Z,1.00
2022-10-08T08:39:19.329Z,0.60
2022-10-08T08:42:08.905Z,0.60
2022-10-08T08:44:40.786Z,0.77
2022-10-08T08:47:20.157Z,0.60
2022-10-08T08:49:51.956Z,0.70
2022-10-08T08:52:23.906Z,0.70
2022-10-08T08:54:54.703Z,0.70
2022-10-08T08:57:35.024Z,0.60
2022-10-08T09:00:11.502Z,0.75
2022-10-08T09:02:53.245Z,0.82
2022-10-08T09:05:24.880Z,0.90
2022-10-08T09:07:58.959Z,0.90
2022-10-08T09:10:40.393Z,0.85
2022-10-08T09:13:15.398Z,0.93
2022-10-08T09:15:46.297Z,0.90
2022-10-08T09:18:17.230Z,0.80
2022-10-08T09:20:45.877Z,1.05
2022-10-08T09:23:19.622Z,1.08
2022-10-08T09:25:55.568Z,1.00
2022-10-08T09:28:45.722Z,1.00
2022-10-08T09:31:26.319Z,0.77
2022-10-08T09:34:01.266Z,1.00
2022-10-08T09:36:37.792Z,0.88
2022-10-08T09:39:17.174Z,0.80
2022-10-08T09:41:47.209Z,1.00
2022-10-08T09:44:21.347Z,1.05
2022-10-08T09:47:04.886Z,0.70
2022-10-08T09:49:38.345Z,0.88
2022-10-08T09:52:17.392Z,0.88
2022-10-08T09:54:49.635Z,1.10
2022-10-08T09:57:20.905Z,1.08
2022-10-08T09:59:54.030Z,0.88
2022-10-08T10:02:33.544Z,0.90
2022-10-08T10:05:07.551Z,0.88
2022-10-08T10:07:42.940Z,1.20
2022-10-08T10:10:19.675Z,0.90
2022-10-08T10:12:53.878Z,1.00
2022-10-08T10:15:29.761Z,0.82
2022-10-08T10:18:02.236Z,1.20
2022-10-08T10:20:38.109Z,1.27
2022-10-08T10:23:14.412Z,1.02
2022-10-08T10:25:48.826Z,0.90
2022-10-08T10:28:23.455Z,0.77
2022-10-08T10:30:58.318Z,0.95
2022-10-08T10:33:31.428Z,0.95
2022-10-08T10:36:07.082Z,0.90
2022-10-08T10:38:43.243Z,1.00
2022-10-08T10:41:22.921Z,1.10
2022-10-08T10:43:54.191Z,0.90
2022-10-08T10:46:34.895Z,0.82
2022-10-08T10:49:03.776Z,1.10
2022-10-08T10:51:55.580Z,0.90
2022-10-08T10:54:49.756Z,0.80
2022-10-08T10:57:29.858Z,0.90
2022-10-08T11:00:07.691Z,0.85
2022-10-08T11:02:44.115Z,1.10
2022-10-08T11:05:20.161Z,0.80
2022-10-08T11:08:21.451Z,0.90
2022-10-08T11:11:10.627Z,1.10
2022-10-08T11:13:52.893Z,1.42
2022-10-08T11:16:41.239Z,0.90
2022-10-08T11:19:23.437Z,0.90
2022-10-08T11:22:03.934Z,1.48
2022-10-08T11:25:02.882Z,0.98
2022-10-08T11:27:47.624Z,0.90
2022-10-08T11:30:20.031Z,0.70
2022-10-08T11:32:53.860Z,1.50
2022-10-08T11:35:33.063Z,1.00
2022-10-08T11:38:10.421Z,1.67
2022-10-08T11:40:46.584Z,1.90
2022-10-08T11:43:26.121Z,1.10
2022-10-08T11:46:28.876Z,1.67
2022-10-08T11:49:00.669Z,1.50
2022-10-08T11:51:41.203Z,1.38
2022-10-08T11:54:24.265Z,1.80
2022-10-08T11:57:14.072Z,1.30
2022-10-08T11:59:44.946Z,1.40
2022-10-08T12:02:27.843Z,1.02
2022-10-08T12:07:33.051Z,1.10
2022-10-08T12:10:29.556Z,1.10
2022-10-08T12:13:32.199Z,0.80
2022-10-08T12:16:06.826Z,1.02
2022-10-08T12:18:53.632Z,1.30
2022-10-08T12:21:55.150Z,1.20
2022-10-08T12:24:56.811Z,1.05
2022-10-08T12:27:46.549Z,1.58
2022-10-08T12:30:17.172Z,0.90
2022-10-08T12:32:57.656Z,1.30
2022-10-08T12:35:30.965Z,1.05
2022-10-08T12:38:31.586Z,1.10
2022-10-08T12:41:16.999Z,1.27
2022-10-08T12:43:54.219Z,0.90
2022-10-08T12:46:36.435Z,1.08
2022-10-08T12:49:16.002Z,0.93
2022-10-08T12:51:53.367Z,1.00
2022-10-08T12:54:25.074Z,0.95
2022-10-08T12:56:54.176Z,1.02
2022-10-08T12:59:27.370Z,0.90
2022-10-08T13:01:56.952Z,0.80
2022-10-08T13:04:29.287Z,0.73
2022-10-08T13:06:57.862Z,0.80
2022-10-08T13:09:30.690Z,0.90
2022-10-08T13:12:03.784Z,0.90
2022-10-08T13:14:34.293Z,0.85
2022-10-08T13:17:04.752Z,0.93
2022-10-08T13:19:35.827Z,0.98
2022-10-08T13:22:08.684Z,0.88
2022-10-08T13:24:43.266Z,1.10
2022-10-08T13:27:27.420Z,1.20
2022-10-08T13:29:56.220Z,1.10
2022-10-08T13:32:27.337Z,1.23
2022-10-08T13:34:58.524Z,1.20
2022-10-08T13:37:31.292Z,1.27
2022-10-08T13:42:32.440Z,1.20
2022-10-08T13:45:02.079Z,1.38
2022-10-08T13:47:31.600Z,1.00
2022-10-08T13:50:02.128Z,0.82
2022-10-08T13:52:33.453Z,1.00
2022-10-08T13:55:04.918Z,0.85
2022-10-08T13:57:33.595Z,0.80
2022-10-08T14:00:01.860Z,0.80
2022-10-08T14:02:31.515Z,0.55
2022-10-08T14:04:59.676Z,0.77
2022-10-08T14:07:32.165Z,0.60
2022-10-08T14:10:02.475Z,0.70
2022-10-08T14:12:34.712Z,0.82
2022-10-08T14:15:02.969Z,0.80
2022-10-08T14:17:33.184Z,0.77
2022-10-08T14:20:01.426Z,0.80
2022-10-08T14:22:29.663Z,0.98
2022-10-08T14:24:57.934Z,1.27
2022-10-08T14:27:26.140Z,0.98
2022-10-08T14:29:54.335Z,1.20
2022-10-08T14:32:22.525Z,1.00
2022-10-08T14:34:52.111Z,0.70
2022-10-08T14:37:20.319Z,1.00
2022-10-08T14:39:48.489Z,0.93
2022-10-08T14:42:16.763Z,1.02
2022-10-08T14:44:44.988Z,1.05
2022-10-08T14:47:13.199Z,1.10
2022-10-08T14:49:41.826Z,1.05
2022-10-08T14:52:11.407Z,1.05
2022-10-08T14:54:39.593Z,0.98
2022-10-08T14:57:07.861Z,0.73
2022-10-08T14:59:40.028Z,0.85
2022-10-08T15:02:11.043Z,0.85
2022-10-08T15:04:40.057Z,0.90
2022-10-08T15:07:09.766Z,1.13
2022-10-08T15:09:40.499Z,1.15
2022-10-08T15:12:08.857Z,1.00
2022-10-08T15:14:38.477Z,1.20
2022-10-08T15:17:10.209Z,1.00
2022-10-08T15:19:38.482Z,0.95
2022-10-08T15:22:07.060Z,0.80
2022-10-08T15:24:36.675Z,0.80
2022-10-08T15:27:05.048Z,1.15
2022-10-08T15:29:33.319Z,0.80
2022-10-08T15:32:01.619Z,1.00
2022-10-08T15:34:29.884Z,1.02
2022-10-08T15:36:58.109Z,1.00
2022-10-08T15:39:26.483Z,1.45
2022-10-08T15:41:57.365Z,0.95
2022-10-08T15:44:27.966Z,0.93
2022-10-08T15:47:01.583Z,1.08
2022-10-08T15:49:34.000Z,0.80
2022-10-08T15:52:03.020Z,1.33
2022-10-08T15:54:31.248Z,1.15
2022-10-08T15:57:00.804Z,1.20
2022-10-08T15:59:28.993Z,0.75
2022-10-08T16:01:57.395Z,0.90
2022-10-08T16:04:25.889Z,1.00
2022-10-08T16:06:54.188Z,0.98
2022-10-08T16:09:23.578Z,0.80
2022-10-08T16:11:52.836Z,0.90
2022-10-08T16:14:24.853Z,1.35
2022-10-08T16:16:53.824Z,1.10
2022-10-08T16:19:24.977Z,0.82
2022-10-08T16:21:55.885Z,1.08
2022-10-08T16:24:24.202Z,1.02
2022-10-08T16:26:52.716Z,0.70
2022-10-08T16:29:22.364Z,1.17
2022-10-08T16:31:50.593Z,0.82
2022-10-08T16:34:21.769Z,0.90
2022-10-08T16:36:51.299Z,1.13
2022-10-08T16:39:24.362Z,1.02
2022-10-08T16:41:52.815Z,0.90
2022-10-08T16:44:23.006Z,0.73
2022-10-08T16:46:52.983Z,1.20
2022-10-08T16:49:26.329Z,0.98
2022-10-08T16:51:56.552Z,0.90
2022-10-08T16:54:25.132Z,0.80
2022-10-08T16:56:54.011Z,0.80
2022-10-08T16:59:25.899Z,0.90
2022-10-08T17:01:57.174Z,1.13
2022-10-08T17:04:27.705Z,1.00
2022-10-08T17:06:56.506Z,0.80
2022-10-08T17:09:24.739Z,0.70
2022-10-08T17:11:52.920Z,0.80
2022-10-08T17:14:21.253Z,1.30
2022-10-08T17:16:51.560Z,1.20
2022-10-08T17:19:20.415Z,0.98
2022-10-08T17:21:48.670Z,0.80
2022-10-08T17:24:16.841Z,0.90
2022-10-08T17:26:45.099Z,0.80
2022-10-08T17:29:13.864Z,0.55
2022-10-08T17:31:42.547Z,0.70
2022-10-08T17:34:12.934Z,0.63
2022-10-08T17:36:44.104Z,0.68
2022-10-08T17:39:14.867Z,0.73
2022-10-08T17:41:44.687Z,0.57
2022-10-08T17:44:13.048Z,0.65
2022-10-08T17:46:45.453Z,0.65
2022-10-08T17:49:16.762Z,0.80
2022-10-08T17:51:45.672Z,0.93
2022-10-08T17:54:16.618Z,0.80
2022-10-08T17:56:45.119Z,0.60
2022-10-08T17:59:15.796Z,0.90
2022-10-08T18:01:45.546Z,0.70
2022-10-08T18:04:17.529Z,0.70
2022-10-08T18:06:48.769Z,0.93
2022-10-08T18:09:19.988Z,0.80
2022-10-08T18:11:50.913Z,0.77
2022-10-08T18:14:20.245Z,0.80
2022-10-08T18:16:48.951Z,0.85
2022-10-08T18:19:19.652Z,0.70
2022-10-08T18:21:48.196Z,0.70
2022-10-08T18:24:17.697Z,0.70
2022-10-08T18:26:46.775Z,0.80
2022-10-08T18:29:15.820Z,0.90
2022-10-08T18:31:46.636Z,0.90
2022-10-08T18:34:19.987Z,0.95
2022-10-08T18:36:48.624Z,0.70
2022-10-08T18:39:21.578Z,0.90
2022-10-08T18:41:54.306Z,0.77
2022-10-08T18:44:25.455Z,1.10
2022-10-08T18:46:54.259Z,1.08
2022-10-08T18:49:30.249Z,0.90
2022-10-08T18:51:59.466Z,1.10
2022-10-08T18:54:27.882Z,0.90
2022-10-08T18:56:56.745Z,0.90
2022-10-08T18:59:25.300Z,1.20
2022-10-08T19:01:58.315Z,0.82
2022-10-08T19:04:28.887Z,0.98
2022-10-08T19:06:57.163Z,1.00
2022-10-08T19:09:25.334Z,0.80
2022-10-08T19:11:57.288Z,0.85
2022-10-08T19:14:25.711Z,1.00
2022-10-08T19:16:53.976Z,0.95
2022-10-08T19:19:24.558Z,0.95
2022-10-08T19:21:54.835Z,0.90
2022-10-08T19:24:26.064Z,1.25
2022-10-08T19:26:55.278Z,1.00
2022-10-08T19:29:25.661Z,1.10
2022-10-08T19:31:53.896Z,1.63
2022-10-08T19:34:25.679Z,0.90
2022-10-08T19:36:55.681Z,1.10
2022-10-08T19:39:26.597Z,1.30
2022-10-08T19:41:55.288Z,1.30
2022-10-08T19:44:24.496Z,1.48
2022-10-08T19:46:52.750Z,1.38
2022-10-08T19:49:21.658Z,1.20
2022-10-08T19:51:49.957Z,1.10
2022-10-08T19:54:19.495Z,1.35
2022-10-08T19:56:48.623Z,1.10
2022-10-08T19:59:17.624Z,0.98
2022-10-08T20:01:46.051Z,1.27
2022-10-08T20:04:16.704Z,1.08
2022-10-08T20:06:45.375Z,1.65
2022-10-08T20:09:15.268Z,1.00
2022-10-08T20:11:46.429Z,1.20
2022-10-08T20:14:16.418Z,1.15
2022-10-08T20:16:45.040Z,1.08
2022-10-08T20:19:20.120Z,1.20
2022-10-08T20:21:49.744Z,1.20
2022-10-08T20:24:19.252Z,1.25
2022-10-08T20:26:49.913Z,1.15
2022-10-08T20:29:21.022Z,1.20
2022-10-08T20:31:51.607Z,0.85
2022-10-08T20:34:23.562Z,1.00
2022-10-08T20:36:52.372Z,0.93
2022-10-08T20:39:22.615Z,1.27
2022-10-08T20:41:52.784Z,1.38
2022-10-08T20:44:21.641Z,1.10
2022-10-08T20:46:51.650Z,1.30
2022-10-08T20:49:20.173Z,1.10
2022-10-08T20:51:48.486Z,1.50
2022-10-08T20:54:18.408Z,1.60
2022-10-08T20:56:46.953Z,1.45
2022-10-08T20:59:20.010Z,1.13
2022-10-08T21:01:50.567Z,1.20
2022-10-08T21:04:19.482Z,1.42
2022-10-08T21:06:50.014Z,1.20
2022-10-08T21:09:21.489Z,1.30
2022-10-08T21:11:50.224Z,1.17
2022-10-08T21:14:22.566Z,1.20
2022-10-08T21:16:51.097Z,1.17
2022-10-08T21:19:23.062Z,1.40
2022-10-08T21:21:52.254Z,1.10
2022-10-08T21:24:20.748Z,1.10
2022-10-08T21:26:49.070Z,1.20
2022-10-08T21:29:17.338Z,1.45
2022-10-08T21:31:46.994Z,1.50
2022-10-08T21:34:15.241Z,1.88
2022-10-08T21:36:44.681Z,1.45
2022-10-08T21:39:17.443Z,1.85
2022-10-08T21:41:46.943Z,1.45
2022-10-08T21:44:15.942Z,1.50
2022-10-08T21:46:46.298Z,1.50
2022-10-08T21:49:17.052Z,1.88
2022-10-08T21:51:45.869Z,2.00
2022-10-08T21:54:14.821Z,1.60
2022-10-08T21:56:44.069Z,1.85
2022-10-08T21:59:15.492Z,4.35
2022-10-08T22:01:48.061Z,3.60
2022-10-08T22:04:19.912Z,3.78
2022-10-08T22:06:50.719Z,7.60
2022-10-08T22:09:22.110Z,7.47
2022-10-08T22:11:51.312Z,9.10
2022-10-08T22:14:20.504Z,11.77
2022-10-08T22:16:50.464Z,9.45
2022-10-08T22:19:20.418Z,7.20
2022-10-08T22:21:48.792Z,4.50
2022-10-08T22:24:17.096Z,2.80
2022-10-08T22:26:48.429Z,2.95
2022-10-08T22:29:17.310Z,3.65
2022-10-08T22:31:47.027Z,3.00
2022-10-08T22:34:16.556Z,8.02
2022-10-08T22:36:45.896Z,5.72
2022-10-08T22:39:14.204Z,6.93
2022-10-08T22:41:42.469Z,6.63
2022-10-08T22:44:10.847Z,6.45
2022-10-08T22:46:40.563Z,5.22
2022-10-08T22:49:12.162Z,4.03
2022-10-08T22:51:43.825Z,5.25
2022-10-08T22:54:12.114Z,3.92
2022-10-08T22:56:40.282Z,3.60
2022-10-08T22:59:08.607Z,3.00
2022-10-08T23:01:36.854Z,3.25
2022-10-08T23:04:05.157Z,2.92
2022-10-08T23:06:35.137Z,2.80
2022-10-08T23:09:08.831Z,2.63
2022-10-08T23:11:37.170Z,4.65
2022-10-08T23:14:07.098Z,4.78
2022-10-08T23:16:35.966Z,5.00
2022-10-08T23:19:06.816Z,4.40
2022-10-08T23:21:35.444Z,5.03
2022-10-08T23:24:05.762Z,3.95
2022-10-08T23:26:34.706Z,2.80
2022-10-08T23:29:04.116Z,2.28
2022-10-08T23:31:35.600Z,2.33
2022-10-08T23:34:04.959Z,2.08
2022-10-08T23:36:36.854Z,1.60
2022-10-08T23:39:07.860Z,1.50
2022-10-08T23:41:37.934Z,1.20
2022-10-08T23:44:06.702Z,1.20
2022-10-08T23:46:34.960Z,1.10
2022-10-08T23:49:03.214Z,1.10
2022-10-08T23:51:32.600Z,1.38
2022-10-08T23:54:02.120Z,1.38
2022-10-08T23:56:31.767Z,1.80
2022-10-08T23:59:00.452Z,1.88
